createdAt,value
2023-04-04T00:02:10.382Z,6.29
2023-04-04T00:04:37.008Z,6.20
2023-04-04T00:07:03.629Z,6.41
2023-04-04T00:09:30.895Z,6.71
2023-04-04T00:11:57.996Z,6.50
2023-04-04T00:14:24.679Z,6.54
2023-04-04T00:16:51.598Z,6.40
2023-04-04T00:19:18.945Z,6.49
2023-04-04T00:21:48.470Z,6.55
2023-04-04T00:24:15.085Z,6.39
2023-04-04T00:26:41.731Z,6.26
2023-04-04T00:29:08.377Z,6.37
2023-04-04T00:31:35.385Z,6.10
2023-04-04T00:34:02.084Z,6.23
2023-04-04T00:36:29.406Z,6.30
2023-04-04T00:38:56.197Z,6.28
2023-04-04T00:41:22.818Z,6.41
2023-04-04T00:43:49.660Z,6.04
2023-04-04T00:46:18.897Z,5.75
2023-04-04T00:48:45.572Z,5.79
2023-04-04T00:51:12.126Z,6.00
2023-04-04T00:53:39.091Z,5.81
2023-04-04T00:56:08.355Z,5.69
2023-04-04T00:58:35.015Z,5.79
2023-04-04T01:01:02.407Z,5.73
2023-04-04T01:03:29.557Z,5.73
2023-04-04T01:05:56.444Z,6.04
2023-04-04T01:08:27.234Z,5.92
2023-04-04T01:10:53.879Z,5.84
2023-04-04T01:13:21.242Z,5.76
2023-04-04T01:15:48.587Z,5.79
2023-04-04T01:18:19.999Z,5.98
2023-04-04T01:21:10.904Z,6.07
2023-04-04T01:23:59.689Z,6.09
2023-04-04T01:26:29.111Z,6.08
2023-04-04T01:28:59.554Z,6.44
2023-04-04T01:31:37.453Z,6.68
2023-04-04T01:34:29.273Z,6.52
2023-04-04T01:37:22.194Z,6.58
2023-04-04T01:39:56.253Z,6.42
2023-04-04T01:42:23.395Z,6.70
2023-04-04T01:44:56.088Z,6.54
2023-04-04T01:47:23.613Z,6.61
2023-04-04T01:49:50.392Z,6.55
2023-04-04T01:52:17.044Z,6.58
2023-04-04T01:54:43.610Z,6.55
2023-04-04T01:57:10.238Z,6.46
2023-04-04T01:59:36.780Z,6.83
2023-04-04T02:02:03.631Z,6.48
2023-04-04T02:04:30.465Z,6.62
2023-04-04T02:06:57.140Z,6.63
2023-04-04T02:09:23.746Z,6.44
2023-04-04T02:11:50.792Z,6.57
2023-04-04T02:14:17.822Z,6.53
2023-04-04T02:16:44.463Z,6.46
2023-04-04T02:19:11.055Z,6.24
2023-04-04T02:21:37.645Z,6.08
2023-04-04T02:24:04.552Z,6.23
2023-04-04T02:26:31.126Z,6.68
2023-04-04T02:28:57.680Z,6.71
2023-04-04T02:31:24.339Z,6.34
2023-04-04T02:33:51.101Z,6.51
2023-04-04T02:36:17.784Z,6.44
2023-04-04T02:38:44.432Z,6.48
2023-04-04T02:41:11.076Z,6.43
2023-04-04T02:43:37.661Z,6.68
2023-04-04T02:46:14.393Z,6.73
2023-04-04T02:48:45.619Z,6.84
2023-04-04T02:51:12.394Z,6.66
2023-04-04T02:53:39.076Z,6.33
2023-04-04T02:56:06.096Z,6.34
2023-04-04T02:58:32.810Z,6.65
2023-04-04T03:00:59.473Z,6.50
2023-04-04T03:03:27.273Z,6.30
2023-04-04T03:05:54.145Z,6.73
2023-04-04T03:08:20.739Z,6.69
2023-04-04T03:10:47.320Z,6.81
2023-04-04T03:13:13.973Z,6.64
2023-04-04T03:15:40.854Z,6.65
2023-04-04T03:18:07.762Z,6.42
2023-04-04T03:20:34.414Z,6.81
2023-04-04T03:23:01.030Z,7.01
2023-04-04T03:25:27.576Z,6.85
2023-04-04T03:27:54.132Z,7.21
2023-04-04T03:30:20.925Z,7.05
2023-04-04T03:32:47.657Z,7.26
2023-04-04T03:35:14.322Z,6.97
2023-04-04T03:37:41.062Z,6.92
2023-04-04T03:40:09.528Z,7.06
2023-04-04T03:42:36.171Z,6.91
2023-04-04T03:45:02.927Z,6.86
2023-04-04T03:47:30.103Z,6.76
2023-04-04T03:49:57.278Z,7.04
2023-04-04T03:52:23.848Z,6.41
2023-04-04T03:54:50.658Z,7.21
2023-04-04T03:57:17.274Z,7.31
2023-04-04T03:59:43.857Z,7.24
2023-04-04T04:02:10.455Z,7.47
2023-04-04T04:04:37.087Z,7.15
2023-04-04T04:07:03.745Z,7.23
2023-04-04T04:09:30.384Z,7.10
2023-04-04T04:11:57.093Z,7.15
2023-04-04T04:14:23.716Z,7.25
2023-04-04T04:16:50.345Z,7.16
2023-04-04T04:19:17.141Z,6.98
2023-04-04T04:21:44.054Z,7.32
2023-04-04T04:24:10.640Z,7.48
2023-04-04T04:26:37.257Z,7.79
2023-04-04T04:29:03.844Z,7.59
2023-04-04T04:31:30.547Z,7.71
2023-04-04T04:33:57.902Z,7.60
2023-04-04T04:36:24.539Z,7.57
2023-04-04T04:38:51.095Z,8.01
2023-04-04T04:41:17.702Z,7.76
2023-04-04T04:43:44.240Z,7.50
2023-04-04T04:46:10.947Z,7.81
2023-04-04T04:48:37.600Z,7.44
2023-04-04T04:51:04.284Z,7.97
2023-04-04T04:53:31.363Z,8.46
2023-04-04T04:55:57.941Z,9.47
2023-04-04T04:58:25.454Z,9.42
2023-04-04T05:00:57.963Z,9.15
2023-04-04T05:03:25.055Z,8.83
2023-04-04T05:05:52.054Z,8.77
2023-04-04T05:08:18.902Z,8.51
2023-04-04T05:10:45.633Z,8.46
2023-04-04T05:13:13.954Z,8.53
2023-04-04T05:15:40.580Z,8.46
2023-04-04T05:18:07.337Z,8.39
2023-04-04T05:20:35.232Z,8.47
2023-04-04T05:23:01.976Z,8.92
2023-04-04T05:25:29.033Z,9.05
2023-04-04T05:27:57.595Z,9.09
2023-04-04T05:30:24.269Z,8.97
2023-04-04T05:32:52.604Z,9.45
2023-04-04T05:35:19.374Z,8.90
2023-04-04T05:37:45.945Z,9.10
2023-04-04T05:40:12.815Z,9.09
2023-04-04T05:42:39.475Z,8.89
2023-04-04T05:45:06.632Z,8.76
2023-04-04T05:47:33.332Z,8.74
2023-04-04T05:50:00.016Z,9.10
2023-04-04T05:52:26.688Z,8.95
2023-04-04T05:54:53.246Z,8.68
2023-04-04T05:57:19.797Z,8.61
2023-04-04T05:59:46.564Z,9.52
2023-04-04T06:02:13.397Z,9.02
2023-04-04T06:04:41.044Z,9.06
2023-04-04T06:07:07.838Z,9.32
2023-04-04T06:09:36.226Z,9.11
2023-04-04T06:12:04.684Z,8.99
2023-04-04T06:14:31.324Z,8.82
2023-04-04T06:16:58.925Z,8.53
2023-04-04T06:19:25.499Z,8.80
2023-04-04T06:21:52.149Z,8.62
2023-04-04T06:24:18.733Z,8.59
2023-04-04T06:26:45.538Z,8.85
2023-04-04T06:29:12.466Z,9.22
2023-04-04T06:31:39.062Z,9.03
2023-04-04T06:34:05.989Z,8.92
2023-04-04T06:36:32.604Z,8.99
2023-04-04T06:38:59.166Z,8.77
2023-04-04T06:41:25.731Z,9.03
2023-04-04T06:43:52.343Z,9.08
2023-04-04T06:46:19.027Z,10.11
2023-04-04T06:48:45.641Z,10.71
2023-04-04T06:51:12.891Z,11.11
2023-04-04T06:53:39.828Z,11.15
2023-04-04T06:56:06.858Z,11.48
2023-04-04T06:58:33.519Z,12.93
2023-04-04T07:01:01.545Z,13.39
2023-04-04T07:03:28.153Z,12.80
2023-04-04T07:05:54.747Z,12.38
2023-04-04T07:08:21.349Z,11.96
2023-04-04T07:10:47.970Z,11.91
2023-04-04T07:13:14.670Z,12.01
2023-04-04T07:15:41.455Z,11.98
2023-04-04T07:18:09.131Z,12.17
2023-04-04T07:20:35.825Z,12.09
2023-04-04T07:23:02.442Z,12.07
2023-04-04T07:25:29.031Z,11.95
2023-04-04T07:28:09.637Z,11.76
2023-04-04T07:30:39.475Z,11.49
2023-04-04T07:33:06.347Z,12.30
2023-04-04T07:35:34.486Z,11.45
2023-04-04T07:38:01.126Z,11.04
2023-04-04T07:40:28.063Z,10.43
2023-04-04T07:42:54.637Z,9.46
2023-04-04T07:45:22.720Z,8.61
2023-04-04T07:47:49.413Z,8.83
2023-04-04T07:50:16.913Z,8.53
2023-04-04T07:52:52.183Z,8.35
2023-04-04T07:55:19.705Z,8.58
2023-04-04T07:57:47.197Z,8.39
2023-04-04T08:00:14.605Z,8.42
2023-04-04T08:02:43.826Z,8.03
2023-04-04T08:05:10.740Z,8.24
2023-04-04T08:07:37.489Z,8.19
2023-04-04T08:10:05.155Z,8.10
2023-04-04T08:12:31.733Z,8.41
2023-04-04T08:14:58.269Z,8.20
2023-04-04T08:17:25.619Z,8.70
2023-04-04T08:19:52.254Z,8.68
2023-04-04T08:22:18.852Z,8.55
2023-04-04T08:24:46.434Z,8.72
2023-04-04T08:27:14.922Z,8.81
2023-04-04T08:29:41.945Z,8.83
2023-04-04T08:32:09.360Z,8.55
2023-04-04T08:34:36.344Z,8.07
2023-04-04T08:37:02.994Z,8.44
2023-04-04T08:39:29.539Z,8.09
2023-04-04T08:42:07.698Z,7.39
2023-04-04T08:44:35.548Z,6.95
2023-04-04T08:47:07.202Z,6.71
2023-04-04T08:49:38.292Z,6.49
2023-04-04T08:52:06.360Z,6.69
2023-04-04T08:54:35.068Z,7.13
2023-04-04T08:57:02.485Z,6.13
2023-04-04T08:59:29.297Z,6.01
2023-04-04T09:02:25.461Z,5.25
2023-04-04T09:05:05.600Z,4.80
2023-04-04T09:07:34.959Z,5.18
2023-04-04T09:10:04.105Z,4.95
2023-04-04T09:12:35.345Z,4.85
2023-04-04T09:15:03.600Z,3.88
2023-04-04T09:17:30.158Z,3.55
2023-04-04T09:19:57.379Z,3.48
2023-04-04T09:22:23.941Z,3.67
2023-04-04T09:24:53.081Z,3.69
2023-04-04T09:27:20.372Z,4.16
2023-04-04T09:29:47.435Z,4.48
2023-04-04T09:32:16.223Z,5.07
2023-04-04T09:34:45.064Z,5.03
2023-04-04T09:37:14.287Z,4.85
2023-04-04T09:39:42.715Z,5.00
2023-04-04T09:42:09.740Z,4.76
2023-04-04T09:44:37.036Z,4.99
2023-04-04T09:47:31.495Z,4.94
2023-04-04T09:50:01.794Z,5.09
2023-04-04T09:52:41.608Z,5.08
2023-04-04T09:55:08.685Z,5.27
2023-04-04T09:57:37.843Z,4.77
2023-04-04T10:00:09.614Z,4.74
2023-04-04T10:02:47.779Z,4.33
2023-04-04T10:05:16.737Z,4.73
2023-04-04T10:07:44.282Z,4.70
2023-04-04T10:10:11.097Z,4.80
2023-04-04T10:12:38.877Z,4.59
2023-04-04T10:15:05.978Z,4.98
2023-04-04T10:17:41.627Z,4.87
2023-04-04T10:20:09.839Z,4.73
2023-04-04T10:22:38.708Z,4.41
2023-04-04T10:25:06.018Z,4.88
2023-04-04T10:27:33.831Z,4.52
2023-04-04T10:30:01.071Z,4.87
2023-04-04T10:32:59.837Z,4.68
2023-04-04T10:35:28.371Z,4.81
2023-04-04T10:38:00.125Z,4.51
2023-04-04T10:40:34.578Z,4.54
2023-04-04T10:43:04.228Z,4.48
2023-04-04T10:45:38.474Z,4.51
2023-04-04T10:48:08.119Z,4.74
2023-04-04T10:50:37.256Z,4.77
2023-04-04T10:53:04.628Z,4.48
2023-04-04T10:55:32.975Z,4.34
2023-04-04T10:58:01.896Z,4.24
2023-04-04T11:00:28.772Z,4.66
2023-04-04T11:02:56.856Z,4.72
2023-04-04T11:05:37.485Z,4.51
2023-04-04T11:08:09.836Z,4.65
2023-04-04T11:10:43.580Z,4.84
2023-04-04T11:13:22.760Z,4.64
2023-04-04T11:16:05.024Z,4.79
2023-04-04T11:21:02.877Z,4.74
2023-04-04T11:23:49.365Z,4.88
2023-04-04T11:26:42.780Z,4.66
2023-04-04T11:29:14.258Z,4.58
2023-04-04T11:31:45.363Z,4.71
2023-04-04T11:34:14.241Z,5.08
2023-04-04T11:36:42.483Z,4.46
2023-04-04T11:39:16.884Z,4.79
2023-04-04T11:42:03.859Z,4.70
2023-04-04T11:44:33.410Z,4.53
2023-04-04T11:47:10.799Z,4.63
2023-04-04T11:49:42.588Z,4.42
2023-04-04T11:52:12.003Z,4.50
2023-04-04T11:54:40.130Z,4.67
2023-04-04T11:57:17.166Z,4.88
2023-04-04T11:59:47.028Z,4.78
2023-04-04T12:02:19.226Z,4.73
2023-04-04T12:04:47.544Z,4.91
2023-04-04T12:07:17.704Z,4.89
2023-04-04T12:09:44.473Z,4.85
2023-04-04T12:12:16.285Z,4.78
2023-04-04T12:14:43.953Z,4.79
2023-04-04T12:17:11.291Z,5.02
2023-04-04T12:19:39.845Z,4.58
2023-04-04T12:22:08.379Z,5.08
2023-04-04T12:24:36.362Z,5.00
2023-04-04T12:27:04.286Z,5.02
2023-04-04T12:29:36.198Z,4.82
2023-04-04T12:32:05.437Z,4.99
2023-04-04T12:34:35.119Z,4.99
2023-04-04T12:37:02.735Z,4.75
2023-04-04T12:39:30.480Z,4.90
2023-04-04T12:42:07.107Z,4.77
2023-04-04T12:44:36.689Z,4.97
2023-04-04T12:47:06.225Z,4.83
2023-04-04T12:49:42.689Z,5.09
2023-04-04T12:52:26.706Z,4.90
2023-04-04T12:55:06.734Z,5.25
2023-04-04T12:57:35.985Z,5.10
2023-04-04T13:00:06.151Z,5.03
2023-04-04T13:02:36.126Z,5.06
2023-04-04T13:05:04.029Z,5.09
2023-04-04T13:07:44.486Z,4.98
2023-04-04T13:10:17.577Z,5.60
2023-04-04T13:13:01.424Z,5.24
2023-04-04T13:15:51.094Z,5.11
2023-04-04T13:18:23.760Z,5.43
2023-04-04T13:20:55.026Z,5.78
2023-04-04T13:23:22.782Z,5.66
2023-04-04T13:25:49.615Z,5.54
2023-04-04T13:28:16.343Z,5.56
2023-04-04T13:30:49.852Z,5.64
2023-04-04T13:33:18.105Z,5.66
2023-04-04T13:35:46.286Z,5.80
2023-04-04T13:38:12.970Z,5.51
2023-04-04T13:40:39.729Z,5.86
2023-04-04T13:43:06.518Z,5.59
2023-04-04T13:45:34.318Z,5.71
2023-04-04T13:48:02.172Z,5.65
2023-04-04T13:50:28.861Z,6.03
2023-04-04T13:52:56.620Z,6.09
2023-04-04T13:55:23.324Z,6.38
2023-04-04T13:57:49.904Z,6.32
2023-04-04T14:00:17.497Z,6.16
2023-04-04T14:02:44.139Z,6.24
2023-04-04T14:05:10.800Z,6.01
2023-04-04T14:07:38.405Z,5.92
2023-04-04T14:10:05.789Z,5.71
2023-04-04T14:12:32.566Z,6.27
2023-04-04T14:14:59.140Z,6.12
2023-04-04T14:17:25.779Z,6.35
2023-04-04T14:19:52.362Z,6.29
2023-04-04T14:22:18.936Z,5.82
2023-04-04T14:24:45.563Z,6.07
2023-04-04T14:27:12.206Z,5.74
2023-04-04T14:29:38.966Z,5.90
2023-04-04T14:32:06.084Z,5.88
2023-04-04T14:34:32.758Z,5.49
2023-04-04T14:37:00.021Z,5.51
2023-04-04T14:39:26.725Z,5.47
2023-04-04T14:41:53.444Z,5.55
2023-04-04T14:44:21.974Z,5.60
2023-04-04T14:46:52.856Z,5.73
2023-04-04T14:49:19.526Z,5.51
2023-04-04T14:51:46.174Z,5.71
2023-04-04T14:54:13.491Z,5.61
2023-04-04T14:56:40.042Z,5.62
2023-04-04T14:59:07.935Z,5.58
2023-04-04T15:01:34.767Z,5.54
2023-04-04T15:04:01.449Z,5.81
2023-04-04T15:06:28.260Z,5.54
2023-04-04T15:08:54.861Z,5.50
2023-04-04T15:11:21.474Z,5.47
2023-04-04T15:13:48.056Z,5.53
2023-04-04T15:16:14.724Z,5.57
2023-04-04T15:18:41.363Z,5.70
2023-04-04T15:21:07.924Z,5.43
2023-04-04T15:23:34.507Z,5.49
2023-04-04T15:26:02.667Z,5.30
2023-04-04T15:28:29.280Z,5.74
2023-04-04T15:30:56.899Z,5.38
2023-04-04T15:33:23.516Z,5.66
2023-04-04T15:35:50.278Z,5.47
2023-04-04T15:38:16.865Z,5.77
2023-04-04T15:40:43.469Z,5.33
2023-04-04T15:43:10.160Z,5.40
2023-04-04T15:45:36.860Z,5.38
2023-04-04T15:48:03.880Z,5.61
2023-04-04T15:50:30.780Z,6.18
2023-04-04T15:52:57.370Z,5.76
2023-04-04T15:55:23.974Z,5.65
2023-04-04T15:57:50.805Z,5.49
2023-04-04T16:00:17.706Z,5.50
2023-04-04T16:02:44.508Z,5.85
2023-04-04T16:05:11.408Z,5.93
2023-04-04T16:07:38.062Z,5.86
2023-04-04T16:10:05.136Z,5.94
2023-04-04T16:12:32.089Z,5.48
2023-04-04T16:14:58.701Z,5.53
2023-04-04T16:17:26.195Z,5.76
2023-04-04T16:19:52.866Z,5.84
2023-04-04T16:22:19.495Z,5.52
2023-04-04T16:24:46.256Z,5.85
2023-04-04T16:27:12.900Z,6.16
2023-04-04T16:29:39.537Z,6.84
2023-04-04T16:32:07.853Z,6.60
2023-04-04T16:34:36.754Z,6.74
2023-04-04T16:37:04.223Z,6.98
2023-04-04T16:39:30.858Z,7.15
2023-04-04T16:41:58.193Z,7.51
2023-04-04T16:44:24.778Z,7.82
2023-04-04T16:46:51.376Z,7.77
2023-04-04T16:49:17.975Z,8.06
2023-04-04T16:51:44.638Z,8.22
2023-04-04T16:54:12.566Z,8.35
2023-04-04T16:56:39.274Z,8.48
2023-04-04T16:59:05.912Z,8.34
2023-04-04T17:01:32.656Z,7.83
2023-04-04T17:03:59.588Z,8.04
2023-04-04T17:06:27.447Z,8.21
2023-04-04T17:08:54.094Z,7.97
2023-04-04T17:11:20.986Z,8.25
2023-04-04T17:13:47.650Z,8.23
2023-04-04T17:16:14.347Z,8.49
2023-04-04T17:18:41.652Z,8.15
2023-04-04T17:21:08.252Z,8.52
2023-04-04T17:23:35.660Z,8.64
2023-04-04T17:26:02.261Z,8.51
2023-04-04T17:28:28.887Z,8.73
2023-04-04T17:30:55.471Z,8.63
2023-04-04T17:33:23.204Z,8.84
2023-04-04T17:35:49.862Z,8.74
2023-04-04T17:38:16.499Z,8.70
2023-04-04T17:40:43.142Z,8.63
2023-04-04T17:43:09.754Z,8.78
2023-04-04T17:45:36.434Z,9.01
2023-04-04T17:48:03.326Z,8.53
2023-04-04T17:50:29.991Z,9.09
2023-04-04T17:52:56.595Z,9.20
2023-04-04T17:55:23.242Z,9.46
2023-04-04T17:57:49.835Z,9.36
2023-04-04T18:00:16.730Z,9.32
2023-04-04T18:02:43.425Z,9.64
2023-04-04T18:05:10.495Z,9.53
2023-04-04T18:07:37.200Z,9.28
2023-04-04T18:10:04.078Z,9.81
2023-04-04T18:12:34.586Z,9.94
2023-04-04T18:15:03.153Z,9.89
2023-04-04T18:17:29.803Z,10.03
2023-04-04T18:19:57.587Z,10.09
2023-04-04T18:22:24.296Z,10.15
2023-04-04T18:24:50.965Z,10.30
2023-04-04T18:27:17.600Z,10.30
2023-04-04T18:29:44.175Z,10.30
2023-04-04T18:32:11.036Z,10.39
2023-04-04T18:34:37.645Z,10.87
2023-04-04T18:37:04.321Z,10.38
2023-04-04T18:39:31.025Z,10.42
2023-04-04T18:41:58.442Z,9.89
2023-04-04T18:44:25.909Z,10.15
2023-04-04T18:46:52.568Z,10.09
2023-04-04T18:49:19.208Z,10.28
2023-04-04T18:51:47.406Z,10.43
2023-04-04T18:54:14.014Z,10.57
2023-04-04T18:56:40.753Z,10.57
2023-04-04T18:59:07.415Z,10.91
2023-04-04T19:01:35.896Z,10.39
2023-04-04T19:04:03.746Z,9.95
2023-04-04T19:06:32.817Z,10.12
2023-04-04T19:09:04.201Z,9.80
2023-04-04T19:11:31.611Z,9.91
2023-04-04T19:13:58.325Z,10.16
2023-04-04T19:16:24.992Z,10.16
2023-04-04T19:18:51.842Z,10.24
2023-04-04T19:21:18.401Z,10.64
2023-04-04T19:23:45.681Z,10.82
2023-04-04T19:26:12.298Z,10.63
2023-04-04T19:28:38.866Z,10.92
2023-04-04T19:31:10.838Z,11.36
2023-04-04T19:33:38.545Z,11.07
2023-04-04T19:36:10.788Z,10.57
2023-04-04T19:38:39.751Z,11.14
2023-04-04T19:41:09.165Z,10.80
2023-04-04T19:43:36.104Z,11.08
2023-04-04T19:46:10.590Z,10.97
2023-04-04T19:48:49.033Z,11.38
2023-04-04T19:51:16.581Z,11.79
2023-04-04T19:53:45.133Z,11.33
2023-04-04T19:56:13.494Z,11.76
2023-04-04T19:58:41.288Z,11.71
2023-04-04T20:01:10.224Z,11.57
2023-04-04T20:03:39.234Z,12.00
2023-04-04T20:06:28.249Z,11.91
2023-04-04T20:08:57.103Z,11.84
2023-04-04T20:11:32.967Z,11.77
2023-04-04T20:14:01.576Z,12.36
2023-04-04T20:16:29.961Z,12.36
2023-04-04T20:19:00.511Z,12.35
2023-04-04T20:21:31.386Z,11.79
2023-04-04T20:24:08.702Z,11.94
2023-04-04T20:26:37.976Z,12.10
2023-04-04T20:29:09.562Z,12.08
2023-04-04T20:31:45.439Z,12.27
2023-04-04T20:34:46.255Z,12.21
2023-04-04T20:37:21.866Z,12.13
2023-04-04T20:39:56.036Z,11.89
2023-04-04T20:42:31.505Z,11.78
2023-04-04T20:45:11.210Z,11.93
2023-04-04T20:47:42.708Z,12.27
2023-04-04T20:50:21.013Z,12.39
2023-04-04T20:52:59.355Z,12.18
2023-04-04T20:55:29.905Z,11.88
2023-04-04T20:58:08.885Z,11.95
2023-04-04T21:00:41.235Z,12.51
2023-04-04T21:03:26.589Z,12.20
2023-04-04T21:05:58.868Z,12.31
2023-04-04T21:08:34.972Z,12.61
2023-04-04T21:11:01.655Z,12.67
2023-04-04T21:13:38.693Z,12.17
2023-04-04T21:16:10.884Z,11.61
2023-04-04T21:18:39.419Z,12.10
2023-04-04T21:21:21.192Z,12.22
2023-04-04T21:23:56.653Z,12.24
2023-04-04T21:26:32.919Z,12.46
2023-04-04T21:29:26.086Z,12.22
2023-04-04T21:31:55.600Z,12.02
2023-04-04T21:34:25.157Z,12.35
2023-04-04T21:37:02.865Z,12.81
2023-04-04T21:39:30.742Z,12.89
2023-04-04T21:42:06.021Z,10.89
2023-04-04T21:44:37.001Z,11.31
2023-04-04T21:47:03.611Z,10.71
2023-04-04T21:49:30.237Z,11.18
2023-04-04T21:51:56.806Z,11.12
2023-04-04T21:54:23.357Z,11.12
2023-04-04T21:56:49.953Z,11.82
2023-04-04T21:59:16.571Z,11.87
2023-04-04T22:01:43.301Z,11.73
2023-04-04T22:04:09.891Z,11.57
2023-04-04T22:06:36.607Z,11.58
2023-04-04T22:09:04.238Z,11.16
2023-04-04T22:11:31.087Z,11.64
2023-04-04T22:14:04.093Z,11.86
2023-04-04T22:16:31.981Z,11.98
2023-04-04T22:19:01.286Z,12.09
2023-04-04T22:21:28.472Z,11.91
2023-04-04T22:24:05.638Z,11.67
2023-04-04T22:26:33.065Z,11.91
2023-04-04T22:29:05.104Z,11.78
2023-04-04T22:31:34.542Z,12.16
2023-04-04T22:34:02.979Z,11.63
2023-04-04T22:36:29.756Z,11.68
2023-04-04T22:38:57.810Z,11.37
2023-04-04T22:41:30.152Z,11.50
2023-04-04T22:43:57.848Z,11.28
2023-04-04T22:46:26.074Z,11.65
2023-04-04T22:49:04.825Z,11.12
2023-04-04T22:51:42.956Z,11.87
2023-04-04T22:54:10.854Z,11.78
2023-04-04T22:56:37.472Z,12.03
2023-04-04T22:59:04.183Z,11.70
2023-04-04T23:01:30.953Z,12.10
2023-04-04T23:03:57.612Z,11.93
2023-04-04T23:06:24.222Z,11.96
2023-04-04T23:08:50.834Z,11.56
2023-04-04T23:11:17.409Z,12.47
2023-04-04T23:13:45.196Z,12.12
2023-04-04T23:16:11.864Z,12.42
2023-04-04T23:18:38.523Z,12.19
2023-04-04T23:21:05.129Z,12.53
2023-04-04T23:23:31.733Z,12.84
2023-04-04T23:25:58.405Z,13.01
2023-04-04T23:28:27.006Z,13.06
2023-04-04T23:30:54.644Z,12.85
2023-04-04T23:33:21.286Z,13.02
2023-04-04T23:35:47.965Z,13.21
2023-04-04T23:38:14.703Z,12.61
2023-04-04T23:40:41.523Z,13.24
2023-04-04T23:43:08.360Z,12.75
2023-04-04T23:45:39.490Z,12.55
2023-04-04T23:48:06.310Z,13.22
2023-04-04T23:50:33.010Z,12.82
2023-04-04T23:52:59.716Z,12.88
2023-04-04T23:55:27.322Z,13.84
2023-04-04T23:57:56.172Z,13.36
